createdAt,value
2022-09-17T00:00:34.827Z,99463.27
2022-09-17T00:03:33.825Z,99463.27
2022-09-17T00:06:24.117Z,99441.48
2022-09-17T00:09:12.967Z,99440.14
2022-09-17T00:12:02.137Z,99449.58
2022-09-17T00:14:51.095Z,99449.84
2022-09-17T00:17:39.388Z,99454.98
2022-09-17T00:20:28.607Z,99447.45
2022-09-17T00:23:17.186Z,99440.72
2022-09-17T00:26:07.346Z,99434.28
2022-09-17T00:28:57.536Z,99444.52
2022-09-17T00:31:46.595Z,99436.19
2022-09-17T00:34:36.272Z,99435.92
2022-09-17T00:37:25.642Z,99428.14
2022-09-17T00:40:14.219Z,99419.50
2022-09-17T00:43:03.770Z,99431.63
2022-09-17T00:45:53.750Z,99428.67
2022-09-17T00:48:42.139Z,99431.11
2022-09-17T00:51:36.106Z,99435.42
2022-09-17T00:54:25.950Z,99432.99
2022-09-17T00:57:16.075Z,99441.35
2022-09-17T01:00:07.485Z,99455.06
2022-09-17T01:02:57.136Z,99467.97
2022-09-17T01:05:49.802Z,99451.58
2022-09-17T01:08:51.846Z,99454.81
2022-09-17T01:11:47.013Z,99455.61
2022-09-17T01:14:51.849Z,99458.84
2022-09-17T01:17:45.273Z,99452.93
2022-09-17T01:21:15.245Z,99458.05
2022-09-17T01:24:37.821Z,99464.77
2022-09-17T01:28:02.774Z,99469.06
2022-09-17T01:31:19.221Z,99461.54
2022-09-17T01:34:20.685Z,99456.95
2022-09-17T01:37:15.357Z,99450.22
2022-09-17T01:40:09.023Z,99442.69
2022-09-17T01:43:05.382Z,99440.29
2022-09-17T01:46:00.690Z,99440.83
2022-09-17T01:48:56.632Z,99451.04
2022-09-17T01:51:48.917Z,99446.45
2022-09-17T01:54:41.733Z,99432.77
2022-09-17T01:57:36.566Z,99435.16
2022-09-17T02:00:25.556Z,99443.77
2022-09-17T02:03:18.463Z,99439.74
2022-09-17T02:06:13.088Z,99445.91
2022-09-17T02:09:06.124Z,99436.77
2022-09-17T02:12:00.633Z,99441.59
2022-09-17T02:14:52.304Z,99434.07
2022-09-17T02:17:46.552Z,99419.84
2022-09-17T02:20:43.034Z,99418.23
2022-09-17T02:23:37.790Z,99416.88
2022-09-17T02:26:28.846Z,99420.38
2022-09-17T02:29:26.149Z,99419.84
2022-09-17T02:32:15.111Z,99423.59
2022-09-17T02:35:03.866Z,99419.83
2022-09-17T02:37:52.828Z,99415.23
2022-09-17T02:40:50.557Z,99417.66
2022-09-17T02:43:47.744Z,99417.13
2022-09-17T02:46:57.641Z,99408.77
2022-09-17T02:50:02.939Z,99412.81
2022-09-17T02:53:06.239Z,99413.87
2022-09-17T02:56:07.075Z,99410.66
2022-09-17T02:59:01.565Z,99408.76
2022-09-17T03:01:55.834Z,99408.76
2022-09-17T03:04:46.389Z,99398.55
2022-09-17T03:07:35.613Z,99391.56
2022-09-17T03:10:27.557Z,99387.27
2022-09-17T03:13:15.369Z,99387.27
2022-09-17T03:16:05.819Z,99381.36
2022-09-17T03:18:54.731Z,99383.50
2022-09-17T03:21:44.091Z,99383.50
2022-09-17T03:24:32.650Z,99373.30
2022-09-17T03:27:22.223Z,99364.45
2022-09-17T03:30:12.270Z,99352.89
2022-09-17T03:33:01.118Z,99346.98
2022-09-17T03:35:50.290Z,99349.66
2022-09-17T03:38:39.082Z,99357.17
2022-09-17T03:41:28.662Z,99351.27
2022-09-17T03:44:18.811Z,99338.37
2022-09-17T03:47:08.222Z,99337.80
2022-09-17T03:50:14.613Z,99331.11
2022-09-17T03:53:03.139Z,99328.95
2022-09-17T03:55:52.299Z,99320.36
2022-09-17T03:58:41.053Z,99332.16
2022-09-17T04:01:29.849Z,99321.68
2022-09-17T04:04:18.973Z,99319.27
2022-09-17T04:07:07.936Z,99319.52
2022-09-17T04:09:56.893Z,99316.30
2022-09-17T04:12:45.855Z,99318.98
2022-09-17T04:15:34.200Z,99323.02
2022-09-17T04:18:23.978Z,99324.09
2022-09-17T04:21:12.939Z,99316.28
2022-09-17T04:24:02.309Z,99323.27
2022-09-17T04:26:51.472Z,99322.47
2022-09-17T04:29:40.057Z,99318.42
2022-09-17T04:32:28.983Z,99321.11
2022-09-17T04:35:18.503Z,99308.22
2022-09-17T04:38:06.505Z,99309.84
2022-09-17T04:40:56.886Z,99305.54
2022-09-17T04:43:46.900Z,99312.52
2022-09-17T04:46:35.680Z,99317.63
2022-09-17T04:49:24.380Z,99320.86
2022-09-17T04:52:13.133Z,99310.92
2022-09-17T04:55:02.097Z,99304.23
2022-09-17T04:57:53.719Z,99302.88
2022-09-17T05:00:42.911Z,99307.72
2022-09-17T05:03:31.432Z,99303.44
2022-09-17T05:06:20.188Z,99299.97
2022-09-17T05:09:09.763Z,99300.02
2022-09-17T05:11:58.519Z,99305.11
2022-09-17T05:14:47.478Z,99308.87
2022-09-17T05:17:35.824Z,99301.36
2022-09-17T05:20:24.577Z,99293.84
2022-09-17T05:23:13.334Z,99301.66
2022-09-17T05:26:02.376Z,99301.12
2022-09-17T05:28:51.456Z,99299.76
2022-09-17T05:31:40.665Z,99305.41
2022-09-17T05:34:29.781Z,99312.11
2022-09-17T05:37:17.931Z,99312.09
2022-09-17T05:40:10.492Z,99313.44
2022-09-17T05:43:01.583Z,99305.36
2022-09-17T05:45:50.133Z,99314.48
2022-09-17T05:48:39.300Z,99315.27
2022-09-17T05:51:28.460Z,99309.33
2022-09-17T05:54:17.220Z,99302.05
2022-09-17T05:57:07.126Z,99302.80
2022-09-17T05:59:55.755Z,99296.58
2022-09-17T06:02:44.794Z,99293.05
2022-09-17T06:05:33.674Z,99307.23
2022-09-17T06:08:22.632Z,99308.80
2022-09-17T06:11:11.366Z,99319.50
2022-09-17T06:13:59.780Z,99321.89
2022-09-17T06:16:52.173Z,99333.38
2022-09-17T06:19:40.928Z,99320.66
2022-09-17T06:22:30.883Z,99319.20
2022-09-17T06:25:20.283Z,99318.03
2022-09-17T06:28:08.272Z,99305.28
2022-09-17T06:31:01.434Z,99314.88
2022-09-17T06:33:50.852Z,99314.48
2022-09-17T06:36:39.406Z,99308.75
2022-09-17T06:39:27.746Z,99309.94
2022-09-17T06:42:16.707Z,99306.03
2022-09-17T06:45:11.106Z,99307.52
2022-09-17T06:48:07.085Z,99311.70
2022-09-17T06:50:56.693Z,99298.89
2022-09-17T06:53:44.959Z,99287.66
2022-09-17T06:56:34.005Z,99296.97
2022-09-17T06:59:22.549Z,99296.00
2022-09-17T07:02:11.548Z,99308.56
2022-09-17T07:05:00.068Z,99289.78
2022-09-17T07:07:48.819Z,99290.72
2022-09-17T07:10:37.776Z,99300.89
2022-09-17T07:13:26.941Z,99319.91
2022-09-17T07:16:15.755Z,99313.84
2022-09-17T07:19:06.950Z,99291.03
2022-09-17T07:21:55.460Z,99279.84
2022-09-17T07:24:44.625Z,99273.78
2022-09-17T07:27:33.381Z,99263.38
2022-09-17T07:30:21.937Z,99264.88
2022-09-17T07:33:11.300Z,99254.47
2022-09-17T07:36:03.127Z,99249.15
2022-09-17T07:38:50.450Z,99260.08
2022-09-17T07:41:39.409Z,99266.17
2022-09-17T07:44:28.780Z,99251.44
2022-09-17T07:47:17.532Z,99261.27
2022-09-17T07:50:09.122Z,99260.55
2022-09-17T07:52:57.501Z,99269.56
2022-09-17T07:55:54.103Z,99258.05
2022-09-17T07:58:42.342Z,99258.92
2022-09-17T08:01:33.765Z,99255.00
2022-09-17T08:04:23.173Z,99260.47
2022-09-17T08:07:13.523Z,99255.14
2022-09-17T08:10:02.321Z,99247.06
2022-09-17T08:12:55.338Z,99242.51
2022-09-17T08:15:44.169Z,99249.60
2022-09-17T08:18:33.914Z,99253.46
2022-09-17T08:21:23.698Z,99246.83
2022-09-17T08:24:13.268Z,99252.00
2022-09-17T08:27:02.021Z,99249.34
2022-09-17T08:29:50.983Z,99250.19
2022-09-17T08:32:39.735Z,99240.97
2022-09-17T08:35:28.086Z,99252.35
2022-09-17T08:38:16.616Z,99243.45
2022-09-17T08:41:19.319Z,99258.81
2022-09-17T08:44:21.998Z,99271.82
2022-09-17T08:47:19.906Z,99272.95
2022-09-17T08:50:15.531Z,99265.62
2022-09-17T08:53:37.992Z,99280.83
2022-09-17T08:56:26.837Z,99285.95
2022-09-17T08:59:24.348Z,99289.48
2022-09-17T09:02:25.710Z,99284.53
2022-09-17T09:05:17.356Z,99287.09
2022-09-17T09:08:07.026Z,99298.30
2022-09-17T09:10:58.139Z,99284.90
2022-09-17T09:13:49.957Z,99293.67
2022-09-17T09:16:41.588Z,99303.10
2022-09-17T09:19:33.992Z,99306.61
2022-09-17T09:22:46.203Z,99318.14
2022-09-17T09:25:46.428Z,99323.55
2022-09-17T09:28:45.146Z,99327.06
2022-09-17T09:32:15.776Z,99337.29
2022-09-17T09:35:16.388Z,99333.93
2022-09-17T09:38:13.129Z,99330.09
2022-09-17T09:41:09.667Z,99332.16
2022-09-17T09:44:04.471Z,99346.75
2022-09-17T09:47:31.823Z,99328.19
2022-09-17T09:51:04.609Z,99313.94
2022-09-17T09:54:00.126Z,99335.86
2022-09-17T09:56:57.896Z,99341.44
2022-09-17T09:59:46.645Z,99332.97
2022-09-17T10:02:35.904Z,99314.87
2022-09-17T10:05:25.348Z,99315.48
2022-09-17T10:08:15.140Z,99306.36
2022-09-17T10:11:06.174Z,99312.41
2022-09-17T10:14:13.975Z,99307.91
2022-09-17T10:17:20.146Z,99296.72
2022-09-17T10:20:20.736Z,99293.66
2022-09-17T10:23:14.140Z,99286.77
2022-09-17T10:26:03.825Z,99286.44
2022-09-17T10:28:54.108Z,99289.31
2022-09-17T10:31:50.565Z,99283.53
2022-09-17T10:34:41.465Z,99286.91
2022-09-17T10:37:43.976Z,99280.96
2022-09-17T10:40:33.639Z,99279.66
2022-09-17T10:43:25.834Z,99285.75
2022-09-17T10:46:25.350Z,99285.94
2022-09-17T10:49:29.764Z,99287.56
2022-09-17T10:52:27.055Z,99289.16
2022-09-17T10:55:26.062Z,99291.09
2022-09-17T10:58:30.303Z,99294.94
2022-09-17T11:01:29.853Z,99293.34
2022-09-17T11:04:25.988Z,99306.00
2022-09-17T11:07:38.693Z,99303.41
2022-09-17T11:10:34.410Z,99301.16
2022-09-17T11:13:34.223Z,99305.95
2022-09-17T11:16:40.068Z,99308.02
2022-09-17T11:19:45.116Z,99299.02
2022-09-17T11:22:50.049Z,99291.33
2022-09-17T11:25:54.354Z,99292.92
2022-09-17T11:29:00.276Z,99275.92
2022-09-17T11:31:56.285Z,99286.19
2022-09-17T11:34:53.329Z,99294.83
2022-09-17T11:37:48.535Z,99291.79
2022-09-17T11:40:42.963Z,99297.23
2022-09-17T11:43:35.872Z,99293.05
2022-09-17T11:46:29.244Z,99285.69
2022-09-17T11:49:29.743Z,99279.11
2022-09-17T11:52:23.726Z,99290.79
2022-09-17T11:55:23.780Z,99287.75
2022-09-17T11:58:15.796Z,99291.60
2022-09-17T12:01:05.447Z,99284.09
2022-09-17T12:03:58.802Z,99284.41
2022-09-17T12:06:54.611Z,99278.96
2022-09-17T12:09:45.528Z,99277.83
2022-09-17T12:12:49.783Z,99280.55
2022-09-17T12:15:46.890Z,99273.98
2022-09-17T12:18:50.960Z,99270.13
2022-09-17T12:21:44.213Z,99277.52
2022-09-17T12:24:33.451Z,99281.02
2022-09-17T12:27:38.340Z,99292.26
2022-09-17T12:30:36.150Z,99297.70
2022-09-17T12:33:33.713Z,99314.36
2022-09-17T12:36:47.996Z,99304.94
2022-09-17T12:39:56.363Z,99299.30
2022-09-17T12:43:10.045Z,99292.13
2022-09-17T12:46:17.636Z,99292.16
2022-09-17T12:49:34.645Z,99297.01
2022-09-17T12:52:40.595Z,99299.44
2022-09-17T12:55:54.334Z,99301.87
2022-09-17T12:58:59.135Z,99287.50
2022-09-17T13:01:52.765Z,99280.16
2022-09-17T13:05:02.017Z,99262.73
2022-09-17T13:08:24.686Z,99266.59
2022-09-17T13:11:30.176Z,99255.07
2022-09-17T13:14:25.551Z,99252.05
2022-09-17T13:17:22.328Z,99245.19
2022-09-17T13:20:19.806Z,99234.48
2022-09-17T13:23:10.280Z,99216.44
2022-09-17T13:26:00.469Z,99209.24
2022-09-17T13:28:51.703Z,99201.73
2022-09-17T13:31:50.472Z,99198.55
2022-09-17T13:34:39.843Z,99198.06
2022-09-17T13:37:29.827Z,99179.05
2022-09-17T13:40:23.743Z,99170.11
2022-09-17T13:43:15.731Z,99166.58
2022-09-17T13:46:12.116Z,99165.80
2022-09-17T13:49:06.105Z,99177.45
2022-09-17T13:51:56.746Z,99161.95
2022-09-17T13:54:46.527Z,99154.27
2022-09-17T13:57:46.745Z,99146.25
2022-09-17T14:00:55.841Z,99154.70
2022-09-17T14:03:56.495Z,99140.16
2022-09-17T14:06:53.098Z,99143.34
2022-09-17T14:09:56.578Z,99149.72
2022-09-17T14:13:26.403Z,99159.47
2022-09-17T14:16:36.401Z,99153.39
2022-09-17T14:19:33.647Z,99148.42
2022-09-17T14:22:25.585Z,99155.92
2022-09-17T14:25:19.650Z,99153.98
2022-09-17T14:28:18.892Z,99149.20
2022-09-17T14:31:16.936Z,99132.89
2022-09-17T14:34:12.089Z,99133.23
2022-09-17T14:37:02.174Z,99141.70
2022-09-17T14:39:52.340Z,99144.28
2022-09-17T14:42:41.713Z,99142.22
2022-09-17T14:45:33.844Z,99137.74
2022-09-17T14:48:29.223Z,99128.64
2022-09-17T14:51:29.153Z,99111.08
2022-09-17T14:54:27.253Z,99117.17
2022-09-17T14:57:27.070Z,99110.14
2022-09-17T15:00:24.575Z,99106.14
2022-09-17T15:03:23.226Z,99111.09
2022-09-17T15:06:21.571Z,99112.09
2022-09-17T15:09:16.031Z,99116.11
2022-09-17T15:12:07.138Z,99115.47
2022-09-17T15:14:57.226Z,99123.01
2022-09-17T15:17:46.216Z,99127.80
2022-09-17T15:20:35.687Z,99126.03
2022-09-17T15:23:27.468Z,99126.99
2022-09-17T15:26:22.950Z,99133.88
2022-09-17T15:29:13.520Z,99134.05
2022-09-17T15:32:06.125Z,99131.16
2022-09-17T15:35:30.529Z,99131.80
2022-09-17T15:38:27.050Z,99134.20
2022-09-17T15:41:41.480Z,99135.18
2022-09-17T15:44:31.654Z,99132.30
2022-09-17T15:47:50.053Z,99124.31
2022-09-17T15:50:53.414Z,99133.73
2022-09-17T15:53:53.769Z,99124.16
2022-09-17T15:56:43.214Z,99127.02
2022-09-17T15:59:34.488Z,99131.19
2022-09-17T16:02:31.664Z,99118.25
2022-09-17T16:05:54.177Z,99126.55
2022-09-17T16:08:46.953Z,99116.61
2022-09-17T16:11:35.738Z,99116.77
2022-09-17T16:14:24.297Z,99100.64
2022-09-17T16:17:27.943Z,99092.17
2022-09-17T16:20:21.352Z,99090.40
2022-09-17T16:23:10.417Z,99075.09
2022-09-17T16:25:59.173Z,99071.72
2022-09-17T16:28:50.324Z,99076.17
2022-09-17T16:31:38.219Z,99062.28
2022-09-17T16:34:27.690Z,99053.03
2022-09-17T16:37:16.445Z,99044.57
2022-09-17T16:40:08.834Z,99053.48
2022-09-17T16:42:59.868Z,99048.47
2022-09-17T16:46:00.254Z,99052.77
2022-09-17T16:48:51.948Z,99048.12
2022-09-17T16:51:39.475Z,99057.50
2022-09-17T16:54:27.479Z,99069.09
2022-09-17T16:57:15.959Z,99057.58
2022-09-17T17:00:10.716Z,99067.77
2022-09-17T17:02:59.258Z,99078.25
2022-09-17T17:05:47.958Z,99087.61
2022-09-17T17:08:37.125Z,99082.32
2022-09-17T17:11:27.430Z,99090.08
2022-09-17T17:14:16.077Z,99102.85
2022-09-17T17:17:04.619Z,99095.14
2022-09-17T17:19:52.967Z,99098.59
2022-09-17T17:22:42.874Z,99095.02
2022-09-17T17:25:32.114Z,99103.86
2022-09-17T17:28:21.074Z,99110.81
2022-09-17T17:31:11.527Z,99103.09
2022-09-17T17:33:59.812Z,99099.11
2022-09-17T17:36:50.815Z,99095.09
2022-09-17T17:39:38.963Z,99093.00
2022-09-17T17:42:35.219Z,99095.52
2022-09-17T17:45:24.465Z,99094.53
2022-09-17T17:48:13.009Z,99080.02
2022-09-17T17:51:05.169Z,99076.61
2022-09-17T17:53:54.001Z,99075.33
2022-09-17T17:56:42.552Z,99058.08
2022-09-17T17:59:30.757Z,99042.47
2022-09-17T18:02:19.794Z,99019.85
2022-09-17T18:05:11.190Z,99021.56
2022-09-17T18:07:59.829Z,99021.35
2022-09-17T18:10:59.709Z,99018.47
2022-09-17T18:13:50.793Z,99006.67
2022-09-17T18:16:39.854Z,99008.06
2022-09-17T18:19:28.157Z,99009.48
2022-09-17T18:22:17.898Z,99017.37
2022-09-17T18:25:09.230Z,99032.59
2022-09-17T18:27:58.321Z,99034.29
2022-09-17T18:30:48.712Z,99034.39
2022-09-17T18:33:37.465Z,99041.50
2022-09-17T18:36:27.041Z,99040.19
2022-09-17T18:39:56.455Z,99051.09
2022-09-17T18:42:25.449Z,99044.68
2022-09-17T18:45:13.991Z,99057.50
2022-09-17T18:48:04.795Z,99059.19
2022-09-17T18:51:00.184Z,99063.27
2022-09-17T18:53:51.595Z,99064.97
2022-09-17T18:56:41.930Z,99065.56
2022-09-17T18:59:30.365Z,99071.52
2022-09-17T19:02:19.716Z,99076.42
2022-09-17T19:05:09.976Z,99077.02
2022-09-17T19:07:58.368Z,99077.10
2022-09-17T19:10:52.658Z,99089.59
2022-09-17T19:13:43.047Z,99096.39
2022-09-17T19:16:32.097Z,99096.67
2022-09-17T19:19:20.968Z,99096.17
2022-09-17T19:22:09.518Z,99088.38
2022-09-17T19:24:58.080Z,99088.97
2022-09-17T19:27:47.030Z,99084.67
2022-09-17T19:30:36.403Z,99079.55
2022-09-17T19:33:24.949Z,99074.75
2022-09-17T19:36:16.391Z,99068.06
2022-09-17T19:39:05.329Z,99064.03
2022-09-17T19:41:54.697Z,99064.34
2022-09-17T19:44:43.864Z,99057.63
2022-09-17T19:47:33.233Z,99050.94
2022-09-17T19:50:21.989Z,99058.80
2022-09-17T19:53:10.745Z,99038.63
2022-09-17T19:55:59.298Z,99034.61
2022-09-17T19:58:48.297Z,99036.02
2022-09-17T20:01:37.068Z,99035.51
2022-09-17T20:04:26.380Z,99027.70
2022-09-17T20:07:14.930Z,99021.52
2022-09-17T20:10:04.914Z,99018.31
2022-09-17T20:12:53.667Z,99014.02
2022-09-17T20:15:42.062Z,99005.10
2022-09-17T20:18:31.382Z,99000.80
2022-09-17T20:21:21.982Z,99012.69
2022-09-17T20:24:11.183Z,99018.39
2022-09-17T20:26:59.497Z,99005.19
2022-09-17T20:29:48.464Z,98992.80
2022-09-17T20:32:37.824Z,98991.20
2022-09-17T20:35:26.577Z,98997.69
2022-09-17T20:41:24.157Z,98977.80
2022-09-17T20:44:14.357Z,98973.50
2022-09-17T20:47:05.174Z,98968.41
2022-09-17T20:49:55.133Z,98969.00
2022-09-17T20:52:44.099Z,98953.10
2022-09-17T20:55:32.847Z,98948.30
2022-09-17T20:58:21.401Z,98954.78
2022-09-17T21:01:12.996Z,98950.77
2022-09-17T21:04:04.386Z,98944.87
2022-09-17T21:06:54.768Z,98945.45
2022-09-17T21:09:43.461Z,98941.44
2022-09-17T21:12:31.933Z,98943.63
2022-09-17T21:15:20.895Z,98941.52
2022-09-17T21:18:09.853Z,98942.61
2022-09-17T21:21:00.635Z,98945.61
2022-09-17T21:23:50.460Z,98934.61
2022-09-17T21:26:39.194Z,98943.78
2022-09-17T21:29:27.746Z,98941.40
2022-09-17T21:32:16.087Z,98942.48
2022-09-17T21:35:05.457Z,98918.01
2022-09-17T21:37:55.240Z,98921.80
2022-09-17T21:40:44.833Z,98925.58
2022-09-17T21:43:34.388Z,98932.06
2022-09-17T21:46:25.849Z,98914.30
2022-09-17T21:49:15.897Z,98917.81
2022-09-17T21:52:05.365Z,98910.81
2022-09-17T21:54:53.010Z,98910.00
2022-09-17T21:57:42.055Z,98907.30
2022-09-17T22:00:30.811Z,98903.83
2022-09-17T22:03:19.414Z,98898.44
2022-09-17T22:06:10.622Z,98903.01
2022-09-17T22:09:00.785Z,98907.61
2022-09-17T22:11:49.724Z,98895.23
2022-09-17T22:14:38.683Z,98889.84
2022-09-17T22:17:27.230Z,98890.13
2022-09-17T22:20:16.396Z,98892.31
2022-09-17T22:23:05.536Z,98898.80
2022-09-17T22:26:02.718Z,98898.28
2022-09-17T22:28:52.044Z,98906.95
2022-09-17T22:31:41.562Z,98903.75
2022-09-17T22:34:30.206Z,98892.19
2022-09-17T22:37:18.967Z,98888.17
2022-09-17T22:40:11.871Z,98893.05
2022-09-17T22:43:00.982Z,98882.08
2022-09-17T22:45:49.528Z,98863.80
2022-09-17T22:48:38.696Z,98851.70
2022-09-17T22:51:28.613Z,98853.38
2022-09-17T22:54:18.475Z,98851.00
2022-09-17T22:57:07.827Z,98849.98
2022-09-17T22:59:56.239Z,98847.56
2022-09-17T23:02:44.959Z,98847.36
2022-09-17T23:05:34.094Z,98857.90
2022-09-17T23:08:23.056Z,98869.25
2022-09-17T23:11:19.086Z,98870.64
2022-09-17T23:14:09.495Z,98882.78
2022-09-17T23:16:58.126Z,98866.42
2022-09-17T23:19:46.677Z,98860.77
2022-09-17T23:22:35.633Z,98861.35
2022-09-17T23:25:24.393Z,98853.07
2022-09-17T23:28:13.145Z,98843.67
2022-09-17T23:31:08.486Z,98846.94
2022-09-17T23:33:59.873Z,98844.04
2022-09-17T23:36:49.654Z,98839.23
2022-09-17T23:39:38.223Z,98839.51
2022-09-17T23:42:26.959Z,98835.52
2022-09-17T23:45:15.920Z,98836.88
2022-09-17T23:48:04.880Z,98851.42
2022-09-17T23:50:53.844Z,98853.09
2022-09-17T23:53:42.798Z,98846.69
2022-09-17T23:56:31.350Z,98837.31
2022-09-17T23:59:20.105Z,98847.53
